sensor_id;sensor_type;location;lat;lon;timestamp;P1;durP1;ratioP1;P2;durP2;ratioP2
51479;SDS011;37556;44.570;18.612;2024-03-25T07:23:12;5.47;;;4.13;;
51479;SDS011;37556;44.570;18.612;2024-03-25T07:25:41;5.57;;;5.03;;
51479;SDS011;37556;44.570;18.612;2024-03-25T07:28:07;25.55;;;7.05;;
51479;SDS011;37556;44.570;18.612;2024-03-25T07:30:34;4.35;;;3.28;;
51479;SDS011;37556;44.570;18.612;2024-03-25T07:33:01;2.00;;;1.90;;
51479;SDS011;37556;44.570;18.612;2024-03-25T07:37:53;1.33;;;1.33;;
51479;SDS011;37556;44.570;18.612;2024-03-25T07:43:14;2.40;;;2.20;;
51479;SDS011;37556;44.570;18.612;2024-03-25T07:45:40;3.78;;;3.38;;
51479;SDS011;37556;44.570;18.612;2024-03-25T07:48:30;2.72;;;1.80;;
51479;SDS011;37556;44.570;18.612;2024-03-25T07:57:14;4.05;;;3.10;;
51479;SDS011;37556;44.570;18.612;2024-03-25T08:11:57;2.67;;;1.88;;
51479;SDS011;37556;44.570;18.612;2024-03-25T08:14:24;5.28;;;1.55;;
51479;SDS011;37556;44.570;18.612;2024-03-25T08:16:50;3.30;;;3.08;;
51479;SDS011;37556;44.570;18.612;2024-03-25T08:19:16;3.75;;;3.15;;
51479;SDS011;37556;44.570;18.612;2024-03-25T08:21:50;4.05;;;3.70;;
51479;SDS011;37556;44.570;18.612;2024-03-25T08:24:16;4.10;;;2.95;;
51479;SDS011;37556;44.570;18.612;2024-03-25T08:26:42;3.63;;;3.33;;
51479;SDS011;37556;44.570;18.612;2024-03-25T08:29:12;2.13;;;2.05;;
51479;SDS011;37556;44.570;18.612;2024-03-25T08:31:40;5.15;;;2.42;;
51479;SDS011;37556;44.570;18.612;2024-03-25T08:34:09;2.58;;;2.38;;
51479;SDS011;37556;44.570;18.612;2024-03-25T08:36:43;6.57;;;2.15;;
51479;SDS011;37556;44.570;18.612;2024-03-25T08:39:09;6.35;;;4.45;;
51479;SDS011;37556;44.570;18.612;2024-03-25T08:47:24;6.93;;;2.65;;
51479;SDS011;37556;44.570;18.612;2024-03-25T08:49:55;0.98;;;0.90;;
51479;SDS011;37556;44.570;18.612;2024-03-25T08:52:23;1.30;;;1.20;;
51479;SDS011;37556;44.570;18.612;2024-03-25T09:02:10;1.40;;;1.30;;
51479;SDS011;37556;44.570;18.612;2024-03-25T09:04:36;6.10;;;1.48;;
51479;SDS011;37556;44.570;18.612;2024-03-25T09:07:05;1.30;;;1.20;;
51479;SDS011;37556;44.570;18.612;2024-03-25T09:12:35;2.15;;;1.95;;
51479;SDS011;37556;44.570;18.612;2024-03-25T09:15:01;1.08;;;1.00;;
51479;SDS011;37556;44.570;18.612;2024-03-25T09:20:32;3.22;;;2.33;;
51479;SDS011;37556;44.570;18.612;2024-03-25T09:25:25;0.88;;;0.77;;
51479;SDS011;37556;44.570;18.612;2024-03-25T09:30:18;1.05;;;0.65;;
51479;SDS011;37556;44.570;18.612;2024-03-25T09:32:44;4.97;;;2.33;;
51479;SDS011;37556;44.570;18.612;2024-03-25T09:35:10;1.50;;;1.20;;
51479;SDS011;37556;44.570;18.612;2024-03-25T09:46:11;1.90;;;1.75;;
51479;SDS011;37556;44.570;18.612;2024-03-25T09:48:37;0.73;;;0.73;;
51479;SDS011;37556;44.570;18.612;2024-03-25T09:53:29;0.65;;;0.38;;
51479;SDS011;37556;44.570;18.612;2024-03-25T09:58:40;0.00;;;0.00;;
51479;SDS011;37556;44.570;18.612;2024-03-25T10:01:06;1.30;;;0.20;;
51479;SDS011;37556;44.570;18.612;2024-03-25T10:09:18;1.67;;;1.63;;
51479;SDS011;37556;44.570;18.612;2024-03-25T10:24:08;0.60;;;0.60;;
51479;SDS011;37556;44.570;18.612;2024-03-25T10:26:36;0.38;;;0.38;;
51479;SDS011;37556;44.570;18.612;2024-03-25T10:32:10;0.45;;;0.45;;
51479;SDS011;37556;44.570;18.612;2024-03-25T10:34:54;1.40;;;1.30;;
51479;SDS011;37556;44.570;18.612;2024-03-25T10:37:21;2.28;;;2.10;;
51479;SDS011;37556;44.570;18.612;2024-03-25T10:45:57;3.22;;;2.45;;
51479;SDS011;37556;44.570;18.612;2024-03-25T10:48:37;2.58;;;2.33;;
51479;SDS011;37556;44.570;18.612;2024-03-25T10:51:06;1.25;;;0.70;;
51479;SDS011;37556;44.570;18.612;2024-03-25T10:53:32;1.98;;;1.88;;
51479;SDS011;37556;44.570;18.612;2024-03-25T10:56:05;5.20;;;1.48;;
51479;SDS011;37556;44.570;18.612;2024-03-25T10:58:32;6.32;;;1.92;;
51479;SDS011;37556;44.570;18.612;2024-03-25T11:00:59;5.50;;;1.92;;
51479;SDS011;37556;44.570;18.612;2024-03-25T11:03:26;2.30;;;1.88;;
51479;SDS011;37556;44.570;18.612;2024-03-25T11:05:55;0.80;;;0.77;;
51479;SDS011;37556;44.570;18.612;2024-03-25T11:08:30;2.63;;;2.10;;
51479;SDS011;37556;44.570;18.612;2024-03-25T11:10:59;1.70;;;1.13;;
51479;SDS011;37556;44.570;18.612;2024-03-25T11:13:26;1.42;;;1.27;;
51479;SDS011;37556;44.570;18.612;2024-03-25T11:15:54;1.92;;;1.83;;
51479;SDS011;37556;44.570;18.612;2024-03-25T11:18:22;1.50;;;1.48;;
51479;SDS011;37556;44.570;18.612;2024-03-25T11:23:43;2.72;;;1.83;;
51479;SDS011;37556;44.570;18.612;2024-03-25T11:26:51;2.15;;;1.95;;
51479;SDS011;37556;44.570;18.612;2024-03-25T11:38:31;2.08;;;0.73;;
51479;SDS011;37556;44.570;18.612;2024-03-25T11:40:57;11.48;;;2.00;;
51479;SDS011;37556;44.570;18.612;2024-03-25T11:43:24;2.40;;;1.55;;
51479;SDS011;37556;44.570;18.612;2024-03-25T11:45:53;1.35;;;1.35;;
51479;SDS011;37556;44.570;18.612;2024-03-25T11:48:28;0.10;;;0.10;;
51479;SDS011;37556;44.570;18.612;2024-03-25T11:50:55;9.82;;;1.73;;
51479;SDS011;37556;44.570;18.612;2024-03-25T11:53:21;2.85;;;1.45;;
51479;SDS011;37556;44.570;18.612;2024-03-25T11:55:48;0.77;;;0.77;;
51479;SDS011;37556;44.570;18.612;2024-03-25T11:58:15;0.20;;;0.20;;
51479;SDS011;37556;44.570;18.612;2024-03-25T12:03:07;2.47;;;0.43;;
51479;SDS011;37556;44.570;18.612;2024-03-25T12:05:34;1.88;;;1.77;;
51479;SDS011;37556;44.570;18.612;2024-03-25T12:08:00;0.50;;;0.50;;
51479;SDS011;37556;44.570;18.612;2024-03-25T12:10:26;0.28;;;0.28;;
51479;SDS011;37556;44.570;18.612;2024-03-25T12:19:16;1.15;;;1.05;;
51479;SDS011;37556;44.570;18.612;2024-03-25T12:25:06;0.10;;;0.10;;
51479;SDS011;37556;44.570;18.612;2024-03-25T12:27:32;1.23;;;0.05;;
51479;SDS011;37556;44.570;18.612;2024-03-25T12:29:59;4.47;;;1.60;;
51479;SDS011;37556;44.570;18.612;2024-03-25T12:34:59;0.73;;;0.28;;
51479;SDS011;37556;44.570;18.612;2024-03-25T12:37:26;2.53;;;1.90;;
51479;SDS011;37556;44.570;18.612;2024-03-25T12:39:55;0.43;;;0.43;;
51479;SDS011;37556;44.570;18.612;2024-03-25T12:42:23;1.75;;;0.52;;
51479;SDS011;37556;44.570;18.612;2024-03-25T12:44:51;3.72;;;1.02;;
51479;SDS011;37556;44.570;18.612;2024-03-25T12:47:18;0.40;;;0.40;;
51479;SDS011;37556;44.570;18.612;2024-03-25T12:52:11;0.45;;;0.40;;
51479;SDS011;37556;44.570;18.612;2024-03-25T12:54:37;0.28;;;0.28;;
51479;SDS011;37556;44.570;18.612;2024-03-25T12:57:04;0.65;;;0.60;;
51479;SDS011;37556;44.570;18.612;2024-03-25T12:59:30;0.32;;;0.32;;
51479;SDS011;37556;44.570;18.612;2024-03-25T13:01:56;0.63;;;0.63;;
51479;SDS011;37556;44.570;18.612;2024-03-25T13:04:22;0.15;;;0.15;;
51479;SDS011;37556;44.570;18.612;2024-03-25T13:06:49;0.10;;;0.10;;
51479;SDS011;37556;44.570;18.612;2024-03-25T13:09:15;0.60;;;0.60;;
51479;SDS011;37556;44.570;18.612;2024-03-25T13:11:41;0.00;;;0.00;;
51479;SDS011;37556;44.570;18.612;2024-03-25T13:14:07;0.15;;;0.15;;
51479;SDS011;37556;44.570;18.612;2024-03-25T13:16:33;0.00;;;0.00;;
51479;SDS011;37556;44.570;18.612;2024-03-25T13:18:59;0.00;;;0.00;;
51479;SDS011;37556;44.570;18.612;2024-03-25T13:21:25;0.77;;;0.77;;
51479;SDS011;37556;44.570;18.612;2024-03-25T13:23:52;0.00;;;0.00;;
51479;SDS011;37556;44.570;18.612;2024-03-25T13:26:18;0.10;;;0.10;;
51479;SDS011;37556;44.570;18.612;2024-03-25T13:31:10;1.35;;;0.75;;
51479;SDS011;37556;44.570;18.612;2024-03-25T13:33:37;0.15;;;0.15;;
51479;SDS011;37556;44.570;18.612;2024-03-25T13:38:29;0.40;;;0.40;;
51479;SDS011;37556;44.570;18.612;2024-03-25T13:40:56;0.20;;;0.20;;
51479;SDS011;37556;44.570;18.612;2024-03-25T13:45:48;0.05;;;0.05;;
51479;SDS011;37556;44.570;18.612;2024-03-25T13:48:15;0.10;;;0.10;;
51479;SDS011;37556;44.570;18.612;2024-03-25T13:50:42;0.70;;;0.70;;
51479;SDS011;37556;44.570;18.612;2024-03-25T13:53:08;0.35;;;0.35;;
51479;SDS011;37556;44.570;18.612;2024-03-25T13:55:35;0.55;;;0.55;;
51479;SDS011;37556;44.570;18.612;2024-03-25T13:58:01;0.20;;;0.20;;
51479;SDS011;37556;44.570;18.612;2024-03-25T14:00:27;0.50;;;0.50;;
51479;SDS011;37556;44.570;18.612;2024-03-25T14:05:20;0.00;;;0.00;;
51479;SDS011;37556;44.570;18.612;2024-03-25T14:07:46;0.17;;;0.17;;
51479;SDS011;37556;44.570;18.612;2024-03-25T14:10:12;0.10;;;0.10;;
51479;SDS011;37556;44.570;18.612;2024-03-25T14:12:39;0.35;;;0.20;;
51479;SDS011;37556;44.570;18.612;2024-03-25T14:17:31;0.75;;;0.68;;
51479;SDS011;37556;44.570;18.612;2024-03-25T14:19:57;1.00;;;0.95;;
51479;SDS011;37556;44.570;18.612;2024-03-25T14:24:50;1.20;;;0.55;;
51479;SDS011;37556;44.570;18.612;2024-03-25T14:27:21;0.30;;;0.30;;
51479;SDS011;37556;44.570;18.612;2024-03-25T14:32:13;0.00;;;0.00;;
51479;SDS011;37556;44.570;18.612;2024-03-25T14:34:39;0.20;;;0.20;;
51479;SDS011;37556;44.570;18.612;2024-03-25T14:39:31;0.65;;;0.65;;
51479;SDS011;37556;44.570;18.612;2024-03-25T14:44:23;0.00;;;0.00;;
51479;SDS011;37556;44.570;18.612;2024-03-25T14:46:50;1.05;;;0.70;;
51479;SDS011;37556;44.570;18.612;2024-03-25T14:51:42;0.30;;;0.10;;
51479;SDS011;37556;44.570;18.612;2024-03-25T14:54:08;0.30;;;0.20;;
51479;SDS011;37556;44.570;18.612;2024-03-25T14:56:34;0.25;;;0.15;;
51479;SDS011;37556;44.570;18.612;2024-03-25T14:59:00;0.15;;;0.13;;
51479;SDS011;37556;44.570;18.612;2024-03-25T15:01:26;0.17;;;0.17;;
51479;SDS011;37556;44.570;18.612;2024-03-25T15:03:53;2.40;;;0.80;;
51479;SDS011;37556;44.570;18.612;2024-03-25T15:06:19;2.17;;;0.70;;
51479;SDS011;37556;44.570;18.612;2024-03-25T15:08:45;0.55;;;0.55;;
51479;SDS011;37556;44.570;18.612;2024-03-25T15:11:11;0.10;;;0.10;;
51479;SDS011;37556;44.570;18.612;2024-03-25T15:13:37;0.40;;;0.40;;
51479;SDS011;37556;44.570;18.612;2024-03-25T15:16:04;0.20;;;0.10;;
51479;SDS011;37556;44.570;18.612;2024-03-25T15:18:30;0.20;;;0.20;;
51479;SDS011;37556;44.570;18.612;2024-03-25T15:21:03;0.00;;;0.00;;
51479;SDS011;37556;44.570;18.612;2024-03-25T15:23:30;0.20;;;0.20;;
51479;SDS011;37556;44.570;18.612;2024-03-25T15:25:57;1.25;;;0.57;;
51479;SDS011;37556;44.570;18.612;2024-03-25T15:28:23;5.68;;;1.15;;
51479;SDS011;37556;44.570;18.612;2024-03-25T15:30:50;0.13;;;0.13;;
51479;SDS011;37556;44.570;18.612;2024-03-25T15:33:16;0.00;;;0.00;;
51479;SDS011;37556;44.570;18.612;2024-03-25T15:35:42;0.38;;;0.38;;
51479;SDS011;37556;44.570;18.612;2024-03-25T15:40:36;0.40;;;0.40;;
51479;SDS011;37556;44.570;18.612;2024-03-25T15:45:28;0.10;;;0.10;;
51479;SDS011;37556;44.570;18.612;2024-03-25T15:50:20;0.10;;;0.10;;
51479;SDS011;37556;44.570;18.612;2024-03-25T15:52:50;0.00;;;0.00;;
51479;SDS011;37556;44.570;18.612;2024-03-25T15:55:16;0.10;;;0.10;;
51479;SDS011;37556;44.570;18.612;2024-03-25T15:57:42;0.45;;;0.45;;
51479;SDS011;37556;44.570;18.612;2024-03-25T16:00:09;0.82;;;0.65;;
51479;SDS011;37556;44.570;18.612;2024-03-25T16:02:35;0.10;;;0.10;;
51479;SDS011;37556;44.570;18.612;2024-03-25T16:05:02;0.28;;;0.28;;
51479;SDS011;37556;44.570;18.612;2024-03-25T16:07:28;0.10;;;0.10;;
51479;SDS011;37556;44.570;18.612;2024-03-25T16:09:55;1.75;;;0.80;;
51479;SDS011;37556;44.570;18.612;2024-03-25T16:12:21;0.75;;;0.75;;
51479;SDS011;37556;44.570;18.612;2024-03-25T16:17:13;0.20;;;0.20;;
51479;SDS011;37556;44.570;18.612;2024-03-25T16:19:39;0.15;;;0.15;;
51479;SDS011;37556;44.570;18.612;2024-03-25T16:22:05;1.65;;;1.40;;
51479;SDS011;37556;44.570;18.612;2024-03-25T16:24:32;1.92;;;1.52;;
51479;SDS011;37556;44.570;18.612;2024-03-25T16:26:58;1.65;;;1.02;;
51479;SDS011;37556;44.570;18.612;2024-03-25T16:29:24;0.57;;;0.55;;
51479;SDS011;37556;44.570;18.612;2024-03-25T16:31:50;1.65;;;0.70;;
51479;SDS011;37556;44.570;18.612;2024-03-25T16:34:17;0.55;;;0.43;;
51479;SDS011;37556;44.570;18.612;2024-03-25T16:36:43;0.60;;;0.60;;
51479;SDS011;37556;44.570;18.612;2024-03-25T16:39:09;1.45;;;1.35;;
51479;SDS011;37556;44.570;18.612;2024-03-25T16:44:02;0.88;;;0.55;;
51479;SDS011;37556;44.570;18.612;2024-03-25T16:46:29;0.75;;;0.70;;
51479;SDS011;37556;44.570;18.612;2024-03-25T16:48:55;1.25;;;1.17;;
51479;SDS011;37556;44.570;18.612;2024-03-25T16:51:21;1.35;;;1.25;;
51479;SDS011;37556;44.570;18.612;2024-03-25T16:53:47;5.90;;;2.40;;
51479;SDS011;37556;44.570;18.612;2024-03-25T16:56:14;2.70;;;1.52;;
51479;SDS011;37556;44.570;18.612;2024-03-25T17:01:06;4.13;;;0.95;;
51479;SDS011;37556;44.570;18.612;2024-03-25T17:03:32;4.28;;;2.20;;
51479;SDS011;37556;44.570;18.612;2024-03-25T17:08:24;3.58;;;2.63;;
51479;SDS011;37556;44.570;18.612;2024-03-25T17:10:53;2.78;;;1.55;;
51479;SDS011;37556;44.570;18.612;2024-03-25T17:13:19;6.40;;;3.75;;
51479;SDS011;37556;44.570;18.612;2024-03-25T17:15:45;13.02;;;2.60;;
51479;SDS011;37556;44.570;18.612;2024-03-25T17:18:12;3.05;;;1.90;;
51479;SDS011;37556;44.570;18.612;2024-03-25T17:20:39;6.50;;;3.40;;
51479;SDS011;37556;44.570;18.612;2024-03-25T17:23:05;17.92;;;4.85;;
51479;SDS011;37556;44.570;18.612;2024-03-25T17:25:32;7.57;;;3.15;;
51479;SDS011;37556;44.570;18.612;2024-03-25T17:28:01;4.38;;;2.47;;
51479;SDS011;37556;44.570;18.612;2024-03-25T17:30:28;4.13;;;2.35;;
51479;SDS011;37556;44.570;18.612;2024-03-25T17:32:54;7.15;;;3.05;;
51479;SDS011;37556;44.570;18.612;2024-03-25T17:35:20;1.67;;;1.58;;
